Time;durP1;ratioP1;P1;durP2;ratioP2;P2;SDS_P1;SDS_P2;PMS_P1;PMS_P2;Temp;Humidity;BMP_temperature;BMP_pressure;BME280_temperature;BME280_humidity;BME280_pressure;Samples;Min_cycle;Max_cycle;Signal;HPM_P1;HPM_P2
2021/06/09 00:00:42;;;;;;;0.90;0.60;;;21.80;36.10;;;;;;5118954;27;20031;-74
2021/06/09 00:03:08;;;;;;;1.40;0.50;;;21.80;35.70;;;;;;5114553;28;20089;-73
2021/06/09 00:05:34;;;;;;;2.58;0.70;;;22.10;35.80;;;;;;5112868;28;20103;-74
2021/06/09 00:08:01;;;;;;;1.05;0.70;;;22.10;35.70;;;;;;5116997;28;20478;-73
2021/06/09 00:10:27;;;;;;;1.80;0.60;;;22.10;35.90;;;;;;5116055;28;20035;-73
2021/06/09 00:12:54;;;;;;;0.90;0.50;;;22.30;34.00;;;;;;5097412;28;20342;-72
2021/06/09 00:15:21;;;;;;;1.05;0.63;;;22.10;35.60;;;;;;5118976;28;20035;-73
2021/06/09 00:17:47;;;;;;;1.42;0.68;;;22.20;35.30;;;;;;5119122;28;20642;-72
2021/06/09 00:20:18;;;;;;;2.80;0.50;;;22.00;35.90;;;;;;5114152;28;20036;-73
2021/06/09 00:22:44;;;;;;;0.55;0.55;;;22.20;34.60;;;;;;5109432;28;20099;-73
2021/06/09 00:25:18;;;;;;;2.05;0.80;;;22.10;35.00;;;;;;5113139;28;20106;-73
2021/06/09 00:27:46;;;;;;;0.85;0.60;;;22.00;35.50;;;;;;5114699;28;20028;-73
2021/06/09 00:30:16;;;;;;;0.77;0.60;;;21.90;36.30;;;;;;5109397;28;20031;-73
2021/06/09 00:32:44;;;;;;;1.35;0.80;;;21.90;35.20;;;;;;5113389;28;20088;-73
2021/06/09 00:35:11;;;;;;;4.88;0.57;;;21.70;36.40;;;;;;5114531;28;20023;-72
2021/06/09 00:37:38;;;;;;;1.50;0.70;;;21.80;35.80;;;;;;5116005;28;20081;-72
2021/06/09 00:40:09;;;;;;;0.73;0.47;;;21.70;35.70;;;;;;5097502;28;20365;-72
2021/06/09 00:42:37;;;;;;;2.97;0.40;;;21.80;35.90;;;;;;5099623;28;20016;-72
2021/06/09 00:45:05;;;;;;;2.70;1.55;;;21.70;36.30;;;;;;5112401;28;20062;-72
2021/06/09 00:47:32;;;;;;;0.40;0.40;;;21.70;35.60;;;;;;5107838;28;20032;-72
2021/06/09 00:49:59;;;;;;;0.60;0.60;;;21.70;36.30;;;;;;5118076;28;20023;-72
2021/06/09 00:52:30;;;;;;;2.72;0.70;;;21.70;35.80;;;;;;5114261;28;20024;-72
2021/06/09 00:54:57;;;;;;;5.18;1.33;;;21.80;35.50;;;;;;5115519;28;20080;-72
2021/06/09 00:57:24;;;;;;;0.57;0.57;;;21.60;36.60;;;;;;5114831;28;20031;-73
2021/06/09 00:59:51;;;;;;;0.70;0.55;;;21.60;36.60;;;;;;5108879;28;20024;-74
2021/06/09 01:02:17;;;;;;;3.15;1.00;;;21.50;36.90;;;;;;5123749;27;20041;-75
2021/06/09 01:04:44;;;;;;;0.60;0.57;;;21.60;36.90;;;;;;5113156;28;20080;-72
2021/06/09 01:07:12;;;;;;;2.40;0.70;;;21.50;36.90;;;;;;5102104;28;20445;-73
2021/06/09 01:09:39;;;;;;;0.60;0.60;;;21.30;37.30;;;;;;5114715;28;20024;-74
2021/06/09 01:12:06;;;;;;;1.33;0.77;;;21.30;37.60;;;;;;5099294;28;20096;-72
2021/06/09 01:14:32;;;;;;;0.50;0.47;;;21.30;38.30;;;;;;5116656;28;20028;-72
2021/06/09 01:16:59;;;;;;;4.47;0.68;;;21.40;38.00;;;;;;5112803;28;20016;-72
2021/06/09 01:19:26;;;;;;;1.98;0.57;;;21.40;37.80;;;;;;5077399;28;20028;-72
2021/06/09 01:21:52;;;;;;;1.98;1.20;;;21.20;38.50;;;;;;5096157;28;20052;-71
2021/06/09 01:24:19;;;;;;;0.88;0.47;;;21.20;38.60;;;;;;5115566;28;20028;-72
2021/06/09 01:26:45;;;;;;;1.15;0.60;;;21.30;38.10;;;;;;5114869;28;20020;-73
2021/06/09 01:29:13;;;;;;;5.28;1.25;;;21.10;38.50;;;;;;5115630;28;20024;-72
2021/06/09 01:31:39;;;;;;;2.58;0.65;;;21.10;39.00;;;;;;5115683;28;20023;-72
2021/06/09 01:34:06;;;;;;;1.27;0.60;;;20.90;39.10;;;;;;5101440;28;20015;-72
2021/06/09 01:36:37;;;;;;;0.95;0.57;;;20.80;39.30;;;;;;5115366;28;20410;-71
2021/06/09 01:39:18;;;;;;;0.88;0.60;;;20.80;39.60;;;;;;5111922;28;20031;-73
2021/06/09 01:41:49;;;;;;;0.70;0.60;;;20.90;39.00;;;;;;5113873;28;20024;-74
2021/06/09 01:44:16;;;;;;;0.77;0.60;;;20.90;38.60;;;;;;5114405;28;20024;-73
2021/06/09 01:46:43;;;;;;;0.82;0.80;;;20.80;38.50;;;;;;5111919;28;20411;-73
2021/06/09 01:49:12;;;;;;;0.75;0.68;;;20.70;38.90;;;;;;5095069;28;20023;-72
2021/06/09 01:51:39;;;;;;;0.80;0.77;;;20.60;38.80;;;;;;5107116;28;20124;-73
2021/06/09 01:54:07;;;;;;;0.98;0.60;;;20.50;38.80;;;;;;5102292;28;20584;-70
2021/06/09 01:56:35;;;;;;;1.13;0.60;;;20.50;38.70;;;;;;5112195;28;20031;-74
2021/06/09 01:59:16;;;;;;;2.50;0.65;;;20.20;39.50;;;;;;5096478;28;20027;-75
2021/06/09 02:01:43;;;;;;;2.75;0.60;;;20.10;40.00;;;;;;5111261;27;20031;-76
2021/06/09 02:04:14;;;;;;;1.10;0.60;;;20.10;39.80;;;;;;5109258;28;20031;-75
2021/06/09 02:06:42;;;;;;;0.63;0.63;;;20.10;40.10;;;;;;5108002;28;20024;-73
2021/06/09 02:09:11;;;;;;;0.95;0.73;;;19.90;40.50;;;;;;5117529;27;20359;-74
2021/06/09 02:11:41;;;;;;;1.98;0.63;;;19.80;40.80;;;;;;5119143;27;20020;-73
2021/06/09 02:14:08;;;;;;;0.60;0.60;;;19.70;40.80;;;;;;5111887;28;20043;-74
2021/06/09 02:16:36;;;;;;;2.85;0.60;;;19.80;40.40;;;;;;5111668;28;20039;-73
2021/06/09 02:19:04;;;;;;;2.58;0.80;;;19.90;40.50;;;;;;5092132;28;20070;-73
2021/06/09 02:21:33;;;;;;;2.72;1.17;;;19.70;40.60;;;;;;5111735;28;20069;-73
2021/06/09 02:24:00;;;;;;;1.92;0.93;;;19.80;40.80;;;;;;5104577;28;20035;-73
2021/06/09 02:26:27;;;;;;;0.60;0.50;;;19.50;41.00;;;;;;5094783;28;20031;-74
2021/06/09 02:28:54;;;;;;;3.03;0.73;;;19.70;41.10;;;;;;5094861;28;20057;-74
2021/06/09 02:31:21;;;;;;;0.80;0.80;;;19.50;41.90;;;;;;5105056;28;20023;-73
2021/06/09 02:33:47;;;;;;;0.85;0.63;;;19.20;41.90;;;;;;5114802;28;20047;-73
2021/06/09 02:36:15;;;;;;;3.55;1.10;;;19.20;41.80;;;;;;5119093;27;20349;-74
2021/06/09 02:38:43;;;;;;;1.48;0.68;;;19.20;42.10;;;;;;5096432;28;20120;-73
2021/06/09 02:41:10;;;;;;;0.70;0.70;;;19.20;42.20;;;;;;5113284;28;20403;-73
2021/06/09 02:43:36;;;;;;;4.40;1.20;;;18.80;42.80;;;;;;5109230;28;20035;-74
2021/06/09 02:46:11;;;;;;;0.68;0.68;;;18.60;43.70;;;;;;5112997;28;20490;-74
2021/06/09 02:48:43;;;;;;;1.23;0.80;;;18.50;43.90;;;;;;5116076;28;20019;-72
2021/06/09 02:51:13;;;;;;;1.67;0.80;;;18.60;44.00;;;;;;5115341;28;20024;-73
2021/06/09 02:53:55;;;;;;;1.13;1.13;;;18.50;43.30;;;;;;5110444;28;20426;-72
2021/06/09 02:56:46;;;;;;;1.15;0.80;;;18.50;43.60;;;;;;5113375;28;20119;-72
2021/06/09 02:59:38;;;;;;;1.38;1.30;;;18.60;43.50;;;;;;5100625;28;20410;-73
2021/06/09 03:02:13;;;;;;;3.08;0.73;;;18.40;43.30;;;;;;5095031;28;20461;-73
2021/06/09 03:04:56;;;;;;;1.10;0.80;;;18.40;44.00;;;;;;5114237;28;20038;-73
2021/06/09 03:07:25;;;;;;;4.47;1.35;;;18.30;43.30;;;;;;5112685;28;20122;-73
2021/06/09 03:10:20;;;;;;;3.13;1.63;;;18.10;44.20;;;;;;5113567;28;20035;-73
2021/06/09 03:12:54;;;;;;;1.77;0.90;;;17.90;45.40;;;;;;5108343;28;20024;-72
2021/06/09 03:15:42;;;;;;;4.68;1.10;;;18.00;44.50;;;;;;5113640;28;20035;-73
2021/06/09 03:18:22;;;;;;;1.00;0.75;;;17.80;44.50;;;;;;5098175;28;20085;-72
2021/06/09 03:21:14;;;;;;;1.73;0.75;;;17.60;45.60;;;;;;5108128;28;20047;-72
2021/06/09 03:23:59;;;;;;;1.15;0.77;;;17.50;46.20;;;;;;5095606;28;20489;-71
2021/06/09 03:27:02;;;;;;;0.85;0.80;;;17.50;45.00;;;;;;5093434;28;20024;-72
2021/06/09 03:29:51;;;;;;;8.18;1.77;;;17.60;45.60;;;;;;5093525;28;20103;-72
2021/06/09 03:32:38;;;;;;;2.33;0.88;;;17.20;45.60;;;;;;5114537;28;20480;-72
2021/06/09 03:35:17;;;;;;;5.82;1.48;;;17.40;46.90;;;;;;5116579;28;20023;-72
2021/06/09 03:37:51;;;;;;;1.60;0.80;;;17.20;46.90;;;;;;5099402;28;20070;-73
2021/06/09 03:40:39;;;;;;;1.52;0.88;;;17.20;47.20;;;;;;5099671;28;20039;-74
2021/06/09 03:43:09;;;;;;;0.65;0.65;;;17.10;46.40;;;;;;5114629;28;20520;-72
2021/06/09 03:45:46;;;;;;;1.58;0.88;;;16.90;47.50;;;;;;5112830;28;20031;-73
2021/06/09 03:48:16;;;;;;;1.25;0.80;;;17.00;46.50;;;;;;5096051;28;20509;-72
2021/06/09 03:50:46;;;;;;;0.90;0.90;;;17.10;46.90;;;;;;5104344;28;20023;-73
2021/06/09 03:53:13;;;;;;;1.95;0.85;;;16.90;48.60;;;;;;5116704;27;20035;-73
2021/06/09 03:55:44;;;;;;;1.15;1.05;;;16.90;48.80;;;;;;5117255;28;20068;-73
2021/06/09 03:58:14;;;;;;;3.50;0.95;;;16.90;48.50;;;;;;5116705;28;20019;-73
2021/06/09 04:00:41;;;;;;;1.00;0.85;;;17.00;47.90;;;;;;5105864;28;20032;-72
2021/06/09 04:03:08;;;;;;;1.20;0.95;;;16.90;48.30;;;;;;5112932;28;20024;-73
2021/06/09 04:05:39;;;;;;;1.63;1.13;;;17.00;48.80;;;;;;5114522;28;20031;-72
2021/06/09 04:08:09;;;;;;;4.50;1.05;;;16.80;49.60;;;;;;5108733;28;20056;-72
2021/06/09 04:10:36;;;;;;;0.77;0.70;;;16.80;48.80;;;;;;5101635;28;20103;-73
2021/06/09 04:13:03;;;;;;;0.90;0.90;;;16.80;49.10;;;;;;5110322;28;20031;-72
2021/06/09 04:15:30;;;;;;;0.95;0.80;;;16.90;50.20;;;;;;5103841;28;20377;-72
2021/06/09 04:17:59;;;;;;;3.05;0.85;;;16.60;51.30;;;;;;5103744;28;20024;-72
2021/06/09 04:20:28;;;;;;;0.80;0.80;;;16.70;50.80;;;;;;5106265;28;20024;-73
2021/06/09 04:22:56;;;;;;;1.25;1.05;;;16.70;49.90;;;;;;5107152;28;20024;-73
2021/06/09 04:25:23;;;;;;;3.25;1.10;;;16.60;50.40;;;;;;5105881;28;20048;-73
2021/06/09 04:27:51;;;;;;;2.25;1.00;;;16.50;51.70;;;;;;5098143;28;20020;-72
2021/06/09 04:30:22;;;;;;;0.80;0.80;;;16.80;49.40;;;;;;5108631;28;20066;-73
2021/06/09 04:32:56;;;;;;;6.70;1.20;;;16.50;52.30;;;;;;5080001;28;20473;-72
2021/06/09 04:35:28;;;;;;;1.55;0.77;;;16.40;52.30;;;;;;5114852;28;20027;-73
2021/06/09 04:37:55;;;;;;;4.25;1.10;;;16.40;51.90;;;;;;5109328;28;20016;-73
2021/06/09 04:40:26;;;;;;;9.85;1.25;;;16.60;52.10;;;;;;5111041;28;20028;-73
2021/06/09 04:42:55;;;;;;;1.17;0.90;;;16.60;53.00;;;;;;5123770;28;20401;-72
2021/06/09 04:45:23;;;;;;;2.15;0.85;;;16.30;53.90;;;;;;5125452;28;20117;-73
2021/06/09 04:47:50;;;;;;;3.35;1.58;;;16.40;52.70;;;;;;5117267;28;20019;-75
2021/06/09 04:50:22;;;;;;;1.00;0.93;;;16.40;52.10;;;;;;5115417;28;20108;-73
2021/06/09 04:52:49;;;;;;;2.75;1.02;;;16.30;52.50;;;;;;5112139;28;20077;-73
2021/06/09 04:55:17;;;;;;;2.80;1.67;;;16.30;52.60;;;;;;5114283;27;20080;-72
2021/06/09 04:57:44;;;;;;;1.27;0.75;;;16.30;53.70;;;;;;5099321;28;20111;-72
2021/06/09 05:00:13;;;;;;;1.35;1.00;;;16.30;52.30;;;;;;5100705;28;20026;-73
2021/06/09 05:02:40;;;;;;;5.20;1.02;;;16.40;52.90;;;;;;5113989;28;20060;-72
2021/06/09 05:05:08;;;;;;;1.52;0.93;;;16.40;52.40;;;;;;5104452;28;20067;-72
2021/06/09 05:07:34;;;;;;;5.93;0.80;;;16.40;52.90;;;;;;5114374;28;20011;-72
2021/06/09 05:10:01;;;;;;;1.70;1.13;;;16.20;54.70;;;;;;5098370;28;20028;-72
2021/06/09 05:12:39;;;;;;;1.50;0.90;;;16.20;53.80;;;;;;5081336;28;20420;-72
2021/06/09 05:15:09;;;;;;;2.85;1.10;;;16.10;54.00;;;;;;5116265;28;20107;-74
2021/06/09 05:17:46;;;;;;;0.80;0.80;;;16.10;54.60;;;;;;5106429;28;20058;-72
2021/06/09 05:20:27;;;;;;;4.35;1.55;;;16.10;54.70;;;;;;5115652;28;20461;-72
2021/06/09 05:23:12;;;;;;;1.95;1.13;;;16.10;54.60;;;;;;5106799;28;20036;-72
2021/06/09 05:25:40;;;;;;;0.88;0.88;;;16.10;53.70;;;;;;5114290;28;20019;-72
2021/06/09 05:28:08;;;;;;;2.05;1.10;;;16.10;52.50;;;;;;5114058;28;20016;-72
2021/06/09 05:30:36;;;;;;;4.05;1.15;;;16.20;53.90;;;;;;5104399;28;20047;-72
2021/06/09 05:33:03;;;;;;;8.00;3.47;;;16.10;54.20;;;;;;5100032;28;20038;-72
2021/06/09 05:35:30;;;;;;;4.78;1.88;;;16.10;53.60;;;;;;5100896;28;20023;-72
2021/06/09 05:37:57;;;;;;;3.33;0.90;;;16.10;52.80;;;;;;5108133;28;20054;-72
2021/06/09 05:40:23;;;;;;;2.70;1.05;;;16.10;54.20;;;;;;5113659;28;20058;-72
2021/06/09 05:42:50;;;;;;;1.52;1.20;;;16.10;53.90;;;;;;5113078;28;20034;-72
2021/06/09 05:45:30;;;;;;;1.33;1.20;;;16.20;53.60;;;;;;5112749;27;20077;-72
2021/06/09 05:47:57;;;;;;;0.80;0.80;;;15.90;56.40;;;;;;5111628;28;20478;-72
2021/06/09 05:50:31;;;;;;;4.38;1.20;;;15.60;57.30;;;;;;5110052;27;20031;-73
2021/06/09 05:53:04;;;;;;;0.65;0.65;;;15.70;54.80;;;;;;5108167;28;20373;-72
2021/06/09 05:55:32;;;;;;;1.25;1.00;;;15.80;55.80;;;;;;5109196;28;20023;-72
2021/06/09 05:58:17;;;;;;;3.33;1.08;;;16.10;55.40;;;;;;5113614;28;20330;-73
2021/06/09 06:00:49;;;;;;;1.58;1.00;;;15.80;56.10;;;;;;5111504;28;20023;-72
2021/06/09 06:03:15;;;;;;;2.58;1.27;;;15.90;53.80;;;;;;5110399;28;20028;-72
2021/06/09 06:05:43;;;;;;;2.17;1.10;;;15.80;56.00;;;;;;5109592;28;20032;-73
2021/06/09 06:08:09;;;;;;;4.93;0.98;;;15.90;58.00;;;;;;5105030;28;20019;-73
2021/06/09 06:10:36;;;;;;;2.72;1.02;;;15.90;54.50;;;;;;5108897;27;20067;-73
2021/06/09 06:13:03;;;;;;;2.85;1.30;;;16.00;53.40;;;;;;5113411;27;20024;-73
2021/06/09 06:15:30;;;;;;;1.15;1.15;;;15.90;55.50;;;;;;5111930;28;20473;-73
2021/06/09 06:17:57;;;;;;;7.43;1.08;;;16.00;55.40;;;;;;5112236;28;20457;-73
2021/06/09 06:20:25;;;;;;;1.48;0.98;;;15.70;56.70;;;;;;5112548;28;20023;-73
2021/06/09 06:22:53;;;;;;;2.72;0.90;;;15.70;56.60;;;;;;5113399;28;20023;-73
2021/06/09 06:25:24;;;;;;;1.13;1.02;;;15.70;56.70;;;;;;5113137;28;20035;-73
2021/06/09 06:27:52;;;;;;;4.47;1.08;;;15.70;56.40;;;;;;5092897;28;20697;-73
2021/06/09 06:30:22;;;;;;;1.55;1.20;;;15.80;56.70;;;;;;5099049;28;20023;-71
2021/06/09 06:32:54;;;;;;;5.45;3.00;;;15.90;55.60;;;;;;5111187;28;20039;-71
2021/06/09 06:35:23;;;;;;;0.90;0.90;;;16.00;55.90;;;;;;5095811;28;20019;-70
2021/06/09 06:37:50;;;;;;;4.22;1.73;;;15.90;57.50;;;;;;5109725;28;20299;-72
2021/06/09 06:40:28;;;;;;;0.80;0.80;;;16.10;55.80;;;;;;5111947;28;20043;-72
2021/06/09 06:42:56;;;;;;;3.05;1.10;;;15.90;55.20;;;;;;5110243;28;20019;-71
2021/06/09 06:45:25;;;;;;;1.15;1.05;;;15.90;54.30;;;;;;5112475;28;20030;-71
2021/06/09 06:47:53;;;;;;;3.55;1.00;;;15.80;55.00;;;;;;5112745;28;20163;-72
2021/06/09 06:50:22;;;;;;;2.35;2.15;;;15.80;55.60;;;;;;5113448;28;20166;-72
2021/06/09 06:52:50;;;;;;;1.02;0.93;;;15.70;57.00;;;;;;5112667;28;20020;-72
2021/06/09 06:55:18;;;;;;;1.58;1.30;;;15.70;56.70;;;;;;5110900;28;20039;-71
2021/06/09 06:57:45;;;;;;;3.28;0.93;;;15.70;57.40;;;;;;5108735;28;20365;-72
2021/06/09 07:00:16;;;;;;;0.80;0.80;;;15.60;57.50;;;;;;5095059;28;20449;-71
2021/06/09 07:02:51;;;;;;;0.98;0.90;;;15.60;57.50;;;;;;5111823;28;20024;-71
2021/06/09 07:05:19;;;;;;;2.80;1.17;;;15.60;57.50;;;;;;5112931;28;20020;-73
2021/06/09 07:07:47;;;;;;;0.90;0.90;;;15.60;57.80;;;;;;5113401;28;20020;-71
2021/06/09 07:10:16;;;;;;;1.85;0.90;;;15.60;55.80;;;;;;5115545;28;20888;-72
2021/06/09 07:12:44;;;;;;;1.42;1.23;;;15.60;58.10;;;;;;5116521;28;20086;-73
2021/06/09 07:15:14;;;;;;;2.42;0.80;;;15.50;56.90;;;;;;5110357;28;20480;-73
2021/06/09 07:17:43;;;;;;;0.90;0.90;;;15.50;58.00;;;;;;5104260;28;20023;-73
2021/06/09 07:20:11;;;;;;;5.93;2.17;;;15.60;57.60;;;;;;5117660;28;20420;-72
2021/06/09 07:22:40;;;;;;;4.57;0.90;;;15.40;59.10;;;;;;5116622;28;20103;-73
2021/06/09 07:25:09;;;;;;;3.08;1.83;;;15.30;59.80;;;;;;5112004;28;20016;-72
2021/06/09 07:27:37;;;;;;;2.05;1.70;;;15.50;59.40;;;;;;5116728;28;20030;-71
2021/06/09 07:30:09;;;;;;;1.75;1.65;;;15.50;59.10;;;;;;5116885;28;20054;-72
2021/06/09 07:32:36;;;;;;;;;;;15.30;59.80;;;;;;5117863;28;20666;-72
2021/06/09 07:35:04;;;;;;;2.38;1.00;;;15.50;56.80;;;;;;5116681;28;19951;-72
2021/06/09 07:37:34;;;;;;;4.10;1.40;;;15.50;57.90;;;;;;5116653;28;20106;-72
2021/06/09 07:40:02;;;;;;;4.28;1.67;;;15.50;56.80;;;;;;5116213;28;20084;-72
2021/06/09 07:42:31;;;;;;;1.65;1.55;;;15.50;58.70;;;;;;5114785;28;20098;-72
2021/06/09 07:45:10;;;;;;;1.00;1.00;;;15.50;57.90;;;;;;5113619;28;20038;-72
2021/06/09 07:47:40;;;;;;;0.93;0.93;;;15.50;57.60;;;;;;5113967;28;20055;-73
2021/06/09 07:50:08;;;;;;;5.45;1.70;;;15.50;57.30;;;;;;5109677;28;20031;-72
2021/06/09 07:52:38;;;;;;;1.10;1.00;;;15.50;58.50;;;;;;5108000;28;20354;-72
2021/06/09 07:55:06;;;;;;;1.60;1.13;;;15.40;57.70;;;;;;5108552;28;20353;-72
2021/06/09 07:57:35;;;;;;;1.95;1.60;;;15.50;56.90;;;;;;5116301;28;20405;-72
2021/06/09 08:00:07;;;;;;;0.88;0.88;;;15.50;57.60;;;;;;5116109;28;20027;-73
2021/06/09 08:02:35;;;;;;;2.40;1.05;;;15.50;58.10;;;;;;5116373;28;20115;-72
2021/06/09 08:05:06;;;;;;;3.15;0.93;;;15.50;57.50;;;;;;5116582;28;20039;-72
2021/06/09 08:07:35;;;;;;;1.08;0.98;;;15.50;57.60;;;;;;5113795;28;20042;-72
2021/06/09 08:10:01;;;;;;;3.40;1.00;;;15.50;57.70;;;;;;5116999;28;20054;-71
2021/06/09 08:12:27;;;;;;;0.93;0.93;;;15.40;59.20;;;;;;5117281;28;20418;-73
2021/06/09 08:14:54;;;;;;;5.90;1.30;;;15.50;57.70;;;;;;5115548;28;20042;-72
2021/06/09 08:17:23;;;;;;;1.95;1.02;;;15.40;56.90;;;;;;5097096;28;20024;-73
2021/06/09 08:19:50;;;;;;;1.30;1.00;;;15.40;57.50;;;;;;5113121;28;20035;-72
2021/06/09 08:22:16;;;;;;;1.55;1.45;;;15.40;56.40;;;;;;5114495;28;20050;-72
2021/06/09 08:24:42;;;;;;;1.10;1.00;;;15.40;57.40;;;;;;5113430;28;20176;-71
2021/06/09 08:27:09;;;;;;;0.90;0.90;;;15.50;56.10;;;;;;5111175;28;20342;-72
2021/06/09 08:29:39;;;;;;;1.58;0.90;;;15.40;57.60;;;;;;5112712;28;20015;-71
2021/06/09 08:32:06;;;;;;;3.00;0.80;;;15.40;55.40;;;;;;5105554;28;20088;-72
2021/06/09 08:34:34;;;;;;;1.00;1.00;;;15.40;57.00;;;;;;5110203;28;20016;-71
2021/06/09 08:37:00;;;;;;;1.45;1.35;;;15.40;57.10;;;;;;5116900;28;20062;-71
2021/06/09 08:39:28;;;;;;;0.80;0.80;;;15.40;57.00;;;;;;5114416;28;20474;-71
2021/06/09 08:42:01;;;;;;;4.28;1.27;;;15.40;57.00;;;;;;5105747;28;20024;-73
2021/06/09 08:44:28;;;;;;;1.60;1.00;;;15.40;56.30;;;;;;5104401;28;20099;-72
2021/06/09 08:46:58;;;;;;;1.42;1.25;;;15.40;55.10;;;;;;5096996;28;20030;-72
2021/06/09 08:49:25;;;;;;;1.52;1.42;;;15.40;55.90;;;;;;5115949;28;20405;-72
2021/06/09 08:51:53;;;;;;;0.80;0.80;;;15.40;56.20;;;;;;5115189;28;20031;-72
2021/06/09 08:54:22;;;;;;;3.40;1.10;;;15.40;55.50;;;;;;5115738;28;20046;-72
2021/06/09 08:56:50;;;;;;;2.78;1.10;;;15.30;56.80;;;;;;5089228;28;20028;-72
2021/06/09 08:59:17;;;;;;;0.95;0.95;;;15.20;57.20;;;;;;5109185;28;20579;-72
2021/06/09 09:01:43;;;;;;;1.00;0.98;;;15.20;56.90;;;;;;5109417;28;20357;-73
2021/06/09 09:04:13;;;;;;;3.22;1.10;;;15.20;55.80;;;;;;5115034;28;20035;-73
2021/06/09 09:06:40;;;;;;;0.98;0.98;;;15.10;55.50;;;;;;5103556;28;20023;-73
2021/06/09 09:09:06;;;;;;;2.38;1.67;;;15.10;56.30;;;;;;5115761;28;20027;-70
2021/06/09 09:11:34;;;;;;;1.00;1.00;;;15.00;56.40;;;;;;5111732;28;20029;-72
2021/06/09 09:14:00;;;;;;;3.33;1.10;;;15.00;56.40;;;;;;5115242;28;20028;-72
2021/06/09 09:16:27;;;;;;;1.17;1.17;;;15.00;56.60;;;;;;5114240;28;20031;-73
2021/06/09 09:19:02;;;;;;;0.80;0.80;;;14.90;56.70;;;;;;5083644;28;20484;-72
2021/06/09 09:21:43;;;;;;;1.75;1.00;;;14.90;56.70;;;;;;5094217;28;20031;-72
2021/06/09 09:24:12;;;;;;;5.35;1.30;;;14.80;56.30;;;;;;5095963;28;20485;-72
2021/06/09 09:26:42;;;;;;;2.15;0.98;;;14.80;55.00;;;;;;5094267;28;20109;-72
2021/06/09 09:29:21;;;;;;;0.88;0.88;;;14.70;56.60;;;;;;5105619;28;20027;-72
2021/06/09 09:31:55;;;;;;;3.30;0.90;;;14.60;56.70;;;;;;5081788;28;20024;-72
2021/06/09 09:34:38;;;;;;;0.85;0.85;;;14.50;56.60;;;;;;5107144;28;20479;-72
2021/06/09 09:37:16;;;;;;;2.45;1.10;;;14.50;56.50;;;;;;5091949;28;20035;-72
2021/06/09 09:39:46;;;;;;;5.65;1.67;;;14.50;56.20;;;;;;5095094;28;20103;-73
2021/06/09 09:42:31;;;;;;;1.95;1.08;;;14.50;56.30;;;;;;5093716;28;20656;-72
2021/06/09 09:45:22;;;;;;;1.13;0.93;;;14.40;55.30;;;;;;5094700;28;20028;-72
2021/06/09 09:48:05;;;;;;;1.05;1.05;;;14.40;55.00;;;;;;5094326;28;20042;-72
2021/06/09 09:50:36;;;;;;;1.02;0.85;;;14.40;54.80;;;;;;5080079;28;20028;-72
2021/06/09 09:53:22;;;;;;;1.02;1.02;;;14.30;54.90;;;;;;5077753;28;20063;-72
2021/06/09 09:56:10;;;;;;;1.40;1.02;;;14.20;56.40;;;;;;5094076;28;20032;-72
2021/06/09 09:58:51;;;;;;;1.52;1.00;;;14.20;54.80;;;;;;5094218;28;20158;-72
2021/06/09 10:01:21;;;;;;;5.97;1.10;;;14.10;54.80;;;;;;5096172;28;20165;-72
2021/06/09 10:03:54;;;;;;;1.45;1.45;;;14.10;55.30;;;;;;5094968;28;20454;-72
2021/06/09 10:06:27;;;;;;;6.05;1.80;;;14.00;55.90;;;;;;5093505;28;20032;-72
2021/06/09 10:08:55;;;;;;;3.92;2.25;;;13.90;55.90;;;;;;5104041;28;20051;-72
2021/06/09 10:11:24;;;;;;;3.83;1.50;;;13.80;55.10;;;;;;5093663;28;20106;-72
2021/06/09 10:13:51;;;;;;;2.40;1.27;;;13.80;55.40;;;;;;5095144;28;20023;-72
2021/06/09 10:16:29;;;;;;;1.15;1.15;;;13.80;55.70;;;;;;5093460;28;20028;-72
2021/06/09 10:19:03;;;;;;;1.08;1.08;;;13.60;56.70;;;;;;5075687;28;20019;-72
2021/06/09 10:21:31;;;;;;;1.67;1.58;;;13.60;56.10;;;;;;5094263;28;20082;-72
2021/06/09 10:24:09;;;;;;;1.63;1.38;;;13.60;56.00;;;;;;5100265;28;20025;-72
2021/06/09 10:26:37;;;;;;;1.50;1.40;;;13.60;56.50;;;;;;5093278;28;20046;-72
2021/06/09 10:29:06;;;;;;;5.20;2.30;;;13.60;56.80;;;;;;5076202;28;20020;-72
2021/06/09 10:31:42;;;;;;;2.45;1.60;;;13.60;57.10;;;;;;5095116;28;20060;-73
2021/06/09 10:34:09;;;;;;;1.35;1.30;;;13.50;57.20;;;;;;5077026;28;20471;-73
2021/06/09 10:36:49;;;;;;;1.73;1.63;;;13.50;57.30;;;;;;5093415;28;20027;-72
2021/06/09 10:39:17;;;;;;;4.10;1.63;;;13.40;57.30;;;;;;5093762;28;20024;-72
2021/06/09 10:41:51;;;;;;;1.60;1.50;;;13.20;58.60;;;;;;5092912;28;20354;-72
2021/06/09 10:44:20;;;;;;;1.55;1.38;;;13.10;57.20;;;;;;5093545;28;20024;-72
2021/06/09 10:46:50;;;;;;;2.13;1.52;;;13.20;58.30;;;;;;5088132;28;20385;-72
2021/06/09 10:49:22;;;;;;;1.45;1.27;;;13.20;58.20;;;;;;5094642;28;20079;-72
2021/06/09 10:51:51;;;;;;;2.50;1.85;;;13.10;57.90;;;;;;5099446;28;20425;-73
2021/06/09 10:54:19;;;;;;;4.72;1.73;;;13.10;58.50;;;;;;5093358;28;20043;-72
2021/06/09 10:56:47;;;;;;;1.83;1.73;;;13.00;58.50;;;;;;5094915;28;20024;-72
2021/06/09 10:59:20;;;;;;;1.50;1.40;;;12.90;59.00;;;;;;5071401;28;20055;-72
2021/06/09 11:01:49;;;;;;;3.40;1.60;;;12.80;58.60;;;;;;5098938;28;20024;-72
2021/06/09 11:04:17;;;;;;;4.55;1.65;;;12.70;59.60;;;;;;5100820;28;20024;-73
2021/06/09 11:06:52;;;;;;;10.40;3.13;;;12.70;60.00;;;;;;5071034;28;20102;-72
2021/06/09 11:09:24;;;;;;;3.05;1.30;;;12.70;61.80;;;;;;5093839;28;20020;-72
2021/06/09 11:12:12;;;;;;;4.70;1.60;;;12.70;60.60;;;;;;5093760;28;20020;-72
2021/06/09 11:14:56;;;;;;;1.55;1.42;;;12.70;60.10;;;;;;5093462;28;20085;-72
2021/06/09 11:17:43;;;;;;;9.20;2.20;;;12.80;58.90;;;;;;5073511;28;20409;-73
2021/06/09 11:20:21;;;;;;;1.75;1.63;;;12.80;59.30;;;;;;5092659;28;20466;-72
2021/06/09 11:22:50;;;;;;;3.95;1.50;;;12.90;58.60;;;;;;5084380;28;20122;-72
2021/06/09 11:25:22;;;;;;;1.85;1.60;;;12.90;60.50;;;;;;5092489;28;20016;-72
2021/06/09 11:27:51;;;;;;;;;;;13.00;58.60;;;;;;5091295;28;20020;-72
2021/06/09 11:30:27;;;;;;;1.80;1.63;;;13.00;60.80;;;;;;5091501;28;19915;-72
2021/06/09 11:33:05;;;;;;;1.40;1.30;;;13.00;61.40;;;;;;5095124;28;20125;-72
2021/06/09 11:35:46;;;;;;;5.78;1.80;;;13.10;59.80;;;;;;5093080;28;20027;-72
2021/06/09 11:38:12;;;;;;;3.33;1.67;;;13.10;59.60;;;;;;5082162;28;20140;-72
2021/06/09 11:40:49;;;;;;;2.60;1.65;;;13.10;60.80;;;;;;5093846;28;20020;-72
2021/06/09 11:43:24;;;;;;;2.10;1.90;;;13.40;60.30;;;;;;5093482;28;20020;-72
2021/06/09 11:45:53;;;;;;;1.50;1.40;;;13.40;60.30;;;;;;5092366;28;20039;-72
2021/06/09 11:48:22;;;;;;;1.65;1.55;;;13.50;60.30;;;;;;5092741;28;20115;-72
2021/06/09 11:50:52;;;;;;;1.50;1.30;;;13.60;60.10;;;;;;5091394;28;20095;-72
2021/06/09 11:53:39;;;;;;;1.63;1.35;;;13.60;60.70;;;;;;5093219;28;20113;-72
2021/06/09 11:56:24;;;;;;;7.55;3.10;;;13.60;59.00;;;;;;5075488;28;20125;-72
2021/06/09 11:59:05;;;;;;;3.22;1.20;;;13.60;59.30;;;;;;5097883;28;20028;-72
2021/06/09 12:01:39;;;;;;;7.90;2.50;;;13.70;60.00;;;;;;5078713;28;20210;-72
2021/06/09 12:04:21;;;;;;;1.17;1.17;;;13.60;59.90;;;;;;5094732;28;20421;-72
2021/06/09 12:06:57;;;;;;;;;;;13.60;59.90;;;;;;5096324;28;20020;-72
2021/06/09 12:09:24;;;;;;;4.10;1.30;;;13.60;59.30;;;;;;5078308;28;19998;-72
2021/06/09 12:11:53;;;;;;;1.58;1.20;;;13.50;60.40;;;;;;5113324;28;20027;-72
2021/06/09 12:14:27;;;;;;;3.67;1.52;;;13.60;60.10;;;;;;5095488;28;20031;-72
2021/06/09 12:17:11;;;;;;;1.60;1.50;;;13.60;59.40;;;;;;5096253;28;20103;-72
2021/06/09 12:19:39;;;;;;;4.47;1.10;;;13.60;60.40;;;;;;5077060;28;20024;-72
2021/06/09 12:22:08;;;;;;;6.45;1.58;;;13.60;59.90;;;;;;5096711;28;20012;-72
2021/06/09 12:24:36;;;;;;;2.72;1.30;;;13.60;59.70;;;;;;5100086;28;20098;-72
2021/06/09 12:27:11;;;;;;;4.53;1.50;;;13.70;59.30;;;;;;5096604;28;20078;-72
2021/06/09 12:29:41;;;;;;;3.13;1.27;;;13.70;59.60;;;;;;5117023;28;20016;-72
2021/06/09 12:32:32;;;;;;;1.67;1.58;;;13.80;59.60;;;;;;5114664;28;20089;-71
2021/06/09 12:35:06;;;;;;;1.20;1.20;;;13.70;59.70;;;;;;5096727;28;20062;-72
2021/06/09 12:37:36;;;;;;;1.40;1.38;;;13.70;60.40;;;;;;5099106;28;20449;-72
2021/06/09 12:40:17;;;;;;;5.13;1.60;;;13.70;59.90;;;;;;5105322;28;20037;-71
2021/06/09 12:42:49;;;;;;;2.25;1.63;;;13.90;60.30;;;;;;5096150;28;20011;-72
2021/06/09 12:45:18;;;;;;;;;;;13.80;59.50;;;;;;5096605;28;20039;-71
2021/06/09 12:47:45;;;;;;;4.18;1.33;;;13.80;59.60;;;;;;5097079;28;19966;-71
2021/06/09 12:50:26;;;;;;;1.25;1.15;;;13.80;59.40;;;;;;5096530;28;20024;-71
2021/06/09 12:52:59;;;;;;;1.70;1.60;;;13.80;59.90;;;;;;5105827;28;20081;-72
2021/06/09 12:55:29;;;;;;;1.10;1.10;;;13.70;60.70;;;;;;5095835;28;20024;-72
2021/06/09 12:58:03;;;;;;;1.42;1.33;;;13.60;61.50;;;;;;5094342;28;20568;-71
2021/06/09 13:00:37;;;;;;;2.45;1.40;;;13.50;60.60;;;;;;5102580;28;20023;-71
2021/06/09 13:03:19;;;;;;;1.60;1.50;;;13.60;60.20;;;;;;5096895;28;20023;-72
2021/06/09 13:05:59;;;;;;;2.22;1.20;;;13.60;60.80;;;;;;5095231;28;20112;-73
2021/06/09 13:08:34;;;;;;;1.77;1.23;;;13.50;60.60;;;;;;5091624;28;20124;-72